TimeCDT,TemperatureF,Dew PointF,Humidity,Sea Level PressureIn,VisibilityMPH,Wind Direction,Wind SpeedMPH,Gust SpeedMPH,PrecipitationIn,Events,Conditions,WindDirDegrees,DateUTC
12:40 AM,46.4,41.0,81,30.24,10.0,NNE,12.7,-,N/A,,Overcast,20,2012-10-07 05:40:00
12:51 AM,46.0,41.0,83,30.24,10.0,NNE,16.1,-,N/A,,Overcast,20,2012-10-07 05:51:00
1:46 AM,46.4,39.2,76,30.24,10.0,NE,18.4,23.0,N/A,,Overcast,40,2012-10-07 06:46:00
2:51 AM,46.0,39.0,76,30.26,10.0,NNE,18.4,-,N/A,,Overcast,20,2012-10-07 07:51:00
3:51 AM,44.1,39.9,85,30.26,10.0,NNE,16.1,-,0.00,,Overcast,20,2012-10-07 08:51:00
4:51 AM,44.1,37.9,79,30.26,10.0,NNE,16.1,-,N/A,,Overcast,30,2012-10-07 09:51:00
5:51 AM,43.0,37.9,82,30.27,8.0,NNE,15.0,-,0.00,Rain,Light Rain,30,2012-10-07 10:51:00
6:51 AM,43.0,37.9,82,30.28,10.0,NE,12.7,-,0.00,,Overcast,40,2012-10-07 11:51:00
7:51 AM,43.0,39.0,86,30.29,10.0,ENE,9.2,-,0.00,Rain,Light Rain,60,2012-10-07 12:51:00
8:51 AM,44.1,37.9,79,30.29,10.0,NE,8.1,-,0.00,,Overcast,50,2012-10-07 13:51:00
9:42 AM,44.6,37.4,76,30.29,10.0,NE,8.1,-,N/A,,Overcast,50,2012-10-07 14:42:00
9:51 AM,45.0,37.0,74,30.30,10.0,NE,9.2,-,N/A,,Overcast,50,2012-10-07 14:51:00
10:51 AM,46.9,36.0,66,30.30,10.0,NE,11.5,-,N/A,,Overcast,40,2012-10-07 15:51:00
11:51 AM,48.0,36.0,63,30.28,10.0,NE,11.5,-,N/A,,Overcast,40,2012-10-07 16:51:00
12:51 PM,48.0,37.0,66,30.28,10.0,NE,9.2,-,N/A,,Overcast,50,2012-10-07 17:51:00
1:29 PM,48.2,37.4,66,30.25,10.0,ENE,8.1,-,N/A,,Overcast,70,2012-10-07 18:29:00
1:51 PM,50.0,37.0,61,30.25,10.0,NE,9.2,-,N/A,,Overcast,40,2012-10-07 18:51:00
2:51 PM,50.0,37.0,61,30.22,10.0,ENE,8.1,-,N/A,,Overcast,60,2012-10-07 19:51:00
3:51 PM,51.1,37.9,61,30.19,10.0,ENE,6.9,-,N/A,,Overcast,60,2012-10-07 20:51:00
4:51 PM,50.0,37.9,63,30.19,10.0,NNE,9.2,-,N/A,,Overcast,20,2012-10-07 21:51:00
5:51 PM,48.9,37.9,66,30.19,10.0,NE,11.5,-,N/A,,Overcast,40,2012-10-07 22:51:00
6:51 PM,48.9,37.0,64,30.22,10.0,NE,10.4,-,N/A,,Overcast,50,2012-10-07 23:51:00
7:13 PM,48.2,37.4,66,30.21,10.0,ENE,10.4,-,N/A,,Overcast,60,2012-10-08 00:13:00
7:44 PM,48.2,37.4,66,30.22,10.0,ENE,6.9,-,N/A,,Overcast,60,2012-10-08 00:44:00
7:51 PM,48.9,37.9,66,30.23,10.0,ENE,8.1,-,N/A,,Overcast,60,2012-10-08 00:51:00
8:51 PM,48.9,37.9,66,30.24,10.0,ENE,9.2,-,N/A,,Overcast,70,2012-10-08 01:51:00
9:51 PM,48.0,37.0,66,30.25,10.0,ENE,6.9,-,N/A,,Overcast,60,2012-10-08 02:51:00
10:51 PM,48.0,37.0,66,30.26,10.0,ENE,9.2,-,N/A,,Overcast,70,2012-10-08 03:51:00
11:51 PM,48.0,37.0,66,30.24,10.0,East,4.6,-,N/A,,Overcast,100,2012-10-08 04:51:00